createdAt,value
2017-07-28T07:50:09.580Z,1003.44
2017-07-28T07:54:12.415Z,1003.09
2017-07-28T07:54:52.898Z,1003.13
2017-07-28T07:55:33.311Z,1003.25
2017-07-28T07:56:13.691Z,1003.38
2017-07-28T07:56:54.442Z,1003.36
2017-07-28T07:57:34.819Z,1003.45
2017-07-28T07:58:15.232Z,1003.42
2017-07-28T07:58:55.651Z,1003.49
2017-07-28T07:59:36.146Z,1003.38
2017-07-28T08:00:16.550Z,1003.48
2017-07-28T08:00:57.059Z,1003.48
2017-07-28T08:01:37.510Z,1003.46
2017-07-28T08:02:18.327Z,1003.54
2017-07-28T08:02:58.803Z,1003.59
2017-07-28T08:03:39.445Z,1003.44
2017-07-28T08:04:19.992Z,1003.59
2017-07-28T08:05:00.393Z,1003.6
2017-07-28T08:05:40.972Z,1003.65
2017-07-28T08:06:21.385Z,1003.69
2017-07-28T08:07:01.983Z,1003.65
2017-07-28T08:07:42.513Z,1003.56
2017-07-28T08:09:40.011Z,1003.47
2017-07-28T08:10:20.364Z,1003.34
2017-07-28T08:11:00.761Z,1003.52
2017-07-28T08:11:41.213Z,1003.4
2017-07-28T08:12:21.794Z,1003.51
2017-07-28T08:13:02.350Z,1003.53
2017-07-28T08:13:42.766Z,1003.41
2017-07-28T08:14:23.142Z,1003.54
2017-07-28T08:15:03.572Z,1003.69
2017-07-28T08:15:44.159Z,1003.5
2017-07-28T08:16:24.561Z,1003.44
2017-07-28T08:17:04.998Z,1003.63
2017-07-28T08:17:45.395Z,1003.61
2017-07-28T08:18:26.053Z,1003.67
2017-07-28T08:19:06.493Z,1003.68
2017-07-28T08:19:46.918Z,1003.67
2017-07-28T08:20:27.600Z,1003.57
2017-07-28T08:21:08.009Z,1003.48
2017-07-28T08:21:48.445Z,1003.73
2017-07-28T08:22:29.052Z,1003.49
2017-07-28T08:23:09.274Z,1003.35
2017-07-28T08:23:49.924Z,1003.46
2017-07-28T08:24:30.229Z,1003.47
2017-07-28T08:25:10.640Z,1003.57
2017-07-28T08:25:51.172Z,1003.57
2017-07-28T08:26:31.580Z,1003.56
2017-07-28T08:27:11.946Z,1003.65
2017-07-28T08:27:52.909Z,1003.59
2017-07-28T08:28:34.144Z,1003.57
2017-07-28T08:29:15.011Z,1003.52
2017-07-28T08:29:55.571Z,1003.45
2017-07-28T08:30:36.077Z,1003.41
2017-07-28T08:31:16.595Z,1003.45
2017-07-28T08:31:57.050Z,1003.48
2017-07-28T08:32:37.545Z,1003.45
2017-07-28T08:33:17.952Z,1003.45
2017-07-28T08:33:58.445Z,1003.44
2017-07-28T08:34:38.901Z,1003.45
2017-07-28T08:35:19.298Z,1003.41
2017-07-28T08:35:59.718Z,1003.42
2017-07-28T08:36:40.206Z,1003.45
2017-07-28T08:37:21.018Z,1003.46
2017-07-28T08:38:01.467Z,1003.48
2017-07-28T08:42:07.541Z,1003.33
2017-07-28T08:42:47.928Z,1003.27
2017-07-28T08:43:28.443Z,1003.32
2017-07-28T08:46:45.886Z,1003.29
2017-07-28T08:47:26.314Z,1003.29
2017-07-28T08:48:06.732Z,1003.32
2017-07-28T08:48:47.410Z,1003.29
2017-07-28T08:49:27.837Z,1003.19
2017-07-28T08:50:08.219Z,1003.34
2017-07-28T08:50:48.633Z,1003.3
2017-07-28T08:51:29.112Z,1003.31
2017-07-28T08:52:09.527Z,1003.28
2017-07-28T08:52:50.024Z,1003.21
2017-07-28T08:53:30.491Z,1003.26
2017-07-28T08:54:11.638Z,1003.29
2017-07-28T08:54:52.128Z,1003.25
2017-07-28T08:55:32.534Z,1003.27
2017-07-28T08:56:12.957Z,1003.34
2017-07-28T08:56:53.288Z,1003.29
2017-07-28T08:57:33.900Z,1003.35
2017-07-28T08:58:14.309Z,1003.36
2017-07-28T08:58:54.750Z,1003.39
2017-07-28T09:00:57.629Z,1003.33
2017-07-28T09:01:38.918Z,1003.38
2017-07-28T09:02:19.648Z,1003.35
2017-07-28T09:03:00.286Z,1003.26
2017-07-28T09:03:40.955Z,1003.39
2017-07-28T09:04:21.477Z,1003.39
2017-07-28T09:05:02.038Z,1003.4
2017-07-28T09:05:42.584Z,1003.52
2017-07-28T09:06:23.110Z,1003.48
2017-07-28T09:07:03.704Z,1003.44
2017-07-28T09:07:44.239Z,1003.45
2017-07-28T09:08:24.708Z,1003.58
2017-07-28T09:09:05.301Z,1003.63
2017-07-28T09:09:45.860Z,1003.67
2017-07-28T09:10:29.057Z,1003.66
2017-07-28T09:11:09.731Z,1003.6
2017-07-28T09:11:50.278Z,1003.49
2017-07-28T09:12:30.760Z,1003.43
2017-07-28T09:13:11.284Z,1003.45
2017-07-28T09:13:52.130Z,1003.44
2017-07-28T09:14:32.617Z,1003.51
2017-07-28T09:15:13.372Z,1003.36
2017-07-28T09:15:53.714Z,1003.46
2017-07-28T09:16:34.280Z,1003.51
2017-07-28T09:17:14.753Z,1003.68
2017-07-28T09:17:55.345Z,1003.52
2017-07-28T09:18:35.838Z,1003.46
2017-07-28T09:19:18.287Z,1003.45
2017-07-28T09:19:58.032Z,1003.46
2017-07-28T09:20:38.583Z,1003.52
2017-07-28T09:21:19.198Z,1003.52
2017-07-28T09:21:59.667Z,1003.49
2017-07-28T09:22:40.137Z,1003.48
2017-07-28T09:23:20.657Z,1003.48
2017-07-28T09:24:01.269Z,1003.51
2017-07-28T09:24:44.720Z,1003.54
2017-07-28T09:25:25.170Z,1003.55
2017-07-28T09:26:05.746Z,1003.54
2017-07-28T09:26:46.316Z,1003.57
2017-07-28T09:27:26.845Z,1003.57
2017-07-28T09:28:07.439Z,1003.5
2017-07-28T09:28:47.998Z,1003.55
2017-07-28T09:29:31.085Z,1003.55
2017-07-28T09:30:11.691Z,1003.52
2017-07-28T09:30:52.091Z,1003.63
2017-07-28T09:31:32.578Z,1003.64
2017-07-28T09:32:13.215Z,1003.59
2017-07-28T09:32:54.217Z,1003.64
2017-07-28T09:33:35.831Z,1003.65
2017-07-28T09:34:16.780Z,1003.7
2017-07-28T09:34:56.846Z,1003.74
2017-07-28T09:35:37.315Z,1003.7
2017-07-28T09:36:17.866Z,1003.8
2017-07-28T09:36:58.435Z,1003.68
2017-07-28T09:37:38.890Z,1003.63
2017-07-28T09:38:20.166Z,1003.61
2017-07-28T09:39:00.775Z,1003.6
2017-07-28T09:39:41.294Z,1003.62
2017-07-28T09:40:21.955Z,1003.54
2017-07-28T09:41:02.519Z,1003.63
2017-07-28T09:41:43.124Z,1003.59
2017-07-28T09:42:23.733Z,1003.56
2017-07-28T09:43:04.135Z,1003.75
2017-07-28T09:43:44.703Z,1003.49
2017-07-28T09:44:25.281Z,1003.5
2017-07-28T09:45:05.868Z,1003.44
2017-07-28T09:45:46.401Z,1003.46
2017-07-28T09:46:26.898Z,1003.42
2017-07-28T09:47:07.508Z,1003.35
2017-07-28T09:47:47.951Z,1003.41
2017-07-28T09:48:28.692Z,1003.41
2017-07-28T09:49:09.982Z,1003.48
2017-07-28T09:49:51.249Z,1003.36
2017-07-28T09:50:31.871Z,1003.42
2017-07-28T09:51:12.437Z,1003.49
2017-07-28T09:51:52.970Z,1003.3
2017-07-28T09:52:33.661Z,1003.44
2017-07-28T09:53:14.288Z,1003.4
2017-07-28T09:53:54.813Z,1003.45
2017-07-28T09:54:35.916Z,1003.53
2017-07-28T09:55:16.404Z,1003.49
2017-07-28T09:55:57.034Z,1003.48
2017-07-28T09:56:40.103Z,1003.55
2017-07-28T09:57:20.751Z,1003.54
2017-07-28T09:58:01.260Z,1003.59
2017-07-28T09:58:42.490Z,1003.54
2017-07-28T09:59:24.795Z,1003.66
2017-07-28T10:00:04.882Z,1003.4
2017-07-28T10:00:46.230Z,1003.67
2017-07-28T10:01:26.978Z,1003.59
2017-07-28T10:02:07.375Z,1003.61
2017-07-28T10:02:47.986Z,1003.59
2017-07-28T10:03:28.583Z,1003.51
2017-07-28T10:04:09.262Z,1003.58
2017-07-28T10:04:49.704Z,1003.58
2017-07-28T10:05:37.304Z,1003.59
2017-07-28T10:06:17.765Z,1003.6
2017-07-28T10:06:58.385Z,1003.6
2017-07-28T10:07:38.860Z,1003.59
2017-07-28T10:08:19.416Z,1003.61
2017-07-28T10:08:59.987Z,1003.57
2017-07-28T10:09:40.744Z,1003.81
2017-07-28T10:10:21.431Z,1003.72
2017-07-28T10:12:36.047Z,1003.93
2017-07-28T10:13:16.480Z,1003.9
2017-07-28T10:13:56.962Z,1003.88
2017-07-28T10:14:37.445Z,1003.83
2017-07-28T10:15:17.933Z,1003.71
2017-07-28T10:15:58.384Z,1003.81
2017-07-28T10:16:38.968Z,1003.87
2017-07-28T10:17:19.465Z,1003.81
2017-07-28T10:19:17.716Z,1003.79
2017-07-28T10:19:57.697Z,1003.7
2017-07-28T10:20:38.120Z,1003.88
2017-07-28T10:21:18.565Z,1003.87
2017-07-28T10:21:58.910Z,1003.87
2017-07-28T10:23:53.149Z,1003.87
2017-07-28T10:24:33.568Z,1003.91
2017-07-28T10:25:14.020Z,1003.95
2017-07-28T10:25:54.458Z,1003.9
2017-07-28T10:26:34.849Z,1003.87
2017-07-28T10:27:15.300Z,1003.77
2017-07-28T10:27:55.696Z,1003.72
2017-07-28T10:28:36.143Z,1003.76
2017-07-28T10:29:16.624Z,1004.02
2017-07-28T10:29:57.149Z,1003.95
2017-07-28T10:30:37.788Z,1004.01
2017-07-28T10:31:18.142Z,1004.04
2017-07-28T10:31:58.681Z,1003.9
2017-07-28T10:32:39.253Z,1003.87
2017-07-28T10:33:19.551Z,1003.9
2017-07-28T10:33:59.982Z,1004.02
2017-07-28T10:34:40.459Z,1003.91
2017-07-28T10:35:20.926Z,1004.01
2017-07-28T10:36:01.377Z,1003.94
2017-07-28T10:36:41.746Z,1003.82
2017-07-28T10:37:22.277Z,1003.78
2017-07-28T10:38:02.734Z,1003.73
2017-07-28T10:40:17.609Z,1003.88
2017-07-28T10:40:58.091Z,1003.83
2017-07-28T10:41:38.608Z,1003.85
2017-07-28T10:42:19.203Z,1003.84
2017-07-28T10:42:59.936Z,1003.74
2017-07-28T10:43:40.337Z,1003.8
2017-07-28T10:44:20.842Z,1003.82
2017-07-28T10:45:01.538Z,1003.8
2017-07-28T10:45:41.941Z,1003.85
2017-07-28T10:46:22.494Z,1003.86
2017-07-28T10:47:03.181Z,1003.89
2017-07-28T10:47:43.363Z,1003.85
2017-07-28T10:48:23.917Z,1003.86
2017-07-28T10:49:05.689Z,1003.88
2017-07-28T10:49:46.070Z,1003.85
2017-07-28T10:50:26.499Z,1003.88
2017-07-28T10:51:06.976Z,1003.93
2017-07-28T10:51:48.096Z,1003.89
2017-07-28T10:52:28.683Z,1003.88
2017-07-28T10:53:09.608Z,1004
2017-07-28T10:53:50.143Z,1003.96
2017-07-28T10:54:30.654Z,1003.94
2017-07-28T10:55:11.063Z,1003.93
2017-07-28T10:55:51.756Z,1003.97
2017-07-28T10:56:32.115Z,1004
2017-07-28T10:57:12.724Z,1004.02
2017-07-28T10:57:53.377Z,1003.91
2017-07-28T10:58:33.889Z,1003.89
2017-07-28T10:59:14.295Z,1003.95
2017-07-28T10:59:55.213Z,1004.03
2017-07-28T11:01:50.706Z,1003.96
2017-07-28T11:02:31.571Z,1003.89
2017-07-28T11:03:11.992Z,1003.91
2017-07-28T11:03:52.388Z,1003.94
2017-07-28T11:04:32.850Z,1003.93
2017-07-28T11:05:13.358Z,1003.92
2017-07-28T11:07:41.162Z,1004
2017-07-28T11:08:21.550Z,1004
2017-07-28T11:09:02.005Z,1004.04
2017-07-28T11:09:42.455Z,1004.09
2017-07-28T11:10:22.857Z,1004.01
2017-07-28T11:11:03.301Z,1003.97
2017-07-28T11:11:43.756Z,1004.02
2017-07-28T11:12:24.266Z,1004.03
2017-07-28T11:13:04.750Z,1004.04
2017-07-28T11:13:45.095Z,1003.95
2017-07-28T11:16:13.119Z,1003.97
2017-07-28T11:16:53.766Z,1003.94
2017-07-28T11:17:34.219Z,1003.79
2017-07-28T11:18:14.624Z,1003.83
2017-07-28T11:18:55.002Z,1003.85
2017-07-28T11:19:35.451Z,1003.82
2017-07-28T11:20:15.865Z,1003.9
2017-07-28T11:20:56.411Z,1003.88
2017-07-28T11:21:36.880Z,1003.95
2017-07-28T11:22:17.264Z,1003.99
2017-07-28T11:22:57.744Z,1003.94
2017-07-28T11:23:38.166Z,1003.95
2017-07-28T11:25:56.930Z,1003.9
2017-07-28T11:26:37.345Z,1003.8
2017-07-28T11:27:17.835Z,1003.85
2017-07-28T11:27:58.263Z,1003.78
2017-07-28T11:28:38.705Z,1003.85
2017-07-28T11:29:19.082Z,1003.85
2017-07-28T11:29:59.475Z,1003.84
2017-07-28T11:30:39.892Z,1003.85
2017-07-28T11:35:08.212Z,1003.8
2017-07-28T11:35:48.893Z,1003.8
2017-07-28T11:36:29.336Z,1003.8
2017-07-28T11:37:09.716Z,1003.77
2017-07-28T11:37:50.097Z,1003.74
2017-07-28T11:38:30.522Z,1003.72
2017-07-28T11:39:11.044Z,1003.84
2017-07-28T11:39:51.520Z,1003.8
2017-07-28T11:40:32.131Z,1003.84
2017-07-28T11:41:12.621Z,1003.88
2017-07-28T11:41:54.083Z,1003.69
2017-07-28T11:42:34.756Z,1003.84
2017-07-28T11:43:16.243Z,1003.82
2017-07-28T11:43:56.774Z,1003.73
2017-07-28T11:44:37.232Z,1003.76
2017-07-28T11:45:17.718Z,1003.83
2017-07-28T11:45:58.140Z,1003.82
2017-07-28T11:46:38.600Z,1003.85
2017-07-28T11:47:19.026Z,1003.88
2017-07-28T11:47:59.573Z,1003.81
2017-07-28T11:48:39.787Z,1003.81
2017-07-28T11:49:20.220Z,1003.85
2017-07-28T11:50:00.698Z,1003.84
2017-07-28T11:50:41.452Z,1003.84
2017-07-28T11:51:21.985Z,1003.81
2017-07-28T11:52:02.635Z,1003.8
2017-07-28T11:52:43.134Z,1003.77
2017-07-28T11:55:54.992Z,1003.76
2017-07-28T11:56:35.451Z,1003.79
2017-07-28T11:57:17.770Z,1003.82
2017-07-28T11:57:58.278Z,1003.76
2017-07-28T11:58:39.708Z,1003.86
2017-07-28T11:59:20.143Z,1003.82
2017-07-28T12:00:01.028Z,1003.79
2017-07-28T12:00:41.595Z,1003.85
2017-07-28T12:01:22.272Z,1003.78
2017-07-28T12:02:02.895Z,1003.81
2017-07-28T12:02:43.539Z,1003.82
2017-07-28T12:03:25.024Z,1003.81
2017-07-28T12:04:05.489Z,1003.81
2017-07-28T12:04:46.836Z,1003.81
2017-07-28T12:05:27.360Z,1003.8
2017-07-28T12:06:08.618Z,1003.82
2017-07-28T12:06:49.214Z,1003.73
2017-07-28T12:07:29.696Z,1003.69
2017-07-28T12:08:10.192Z,1003.89
2017-07-28T12:08:50.727Z,1003.82
2017-07-28T12:09:31.172Z,1003.85
2017-07-28T12:10:11.728Z,1003.82
2017-07-28T12:10:52.220Z,1003.84
2017-07-28T12:11:32.710Z,1003.91
2017-07-28T12:12:13.902Z,1003.86
2017-07-28T12:12:54.316Z,1003.9
2017-07-28T12:13:34.842Z,1003.74
2017-07-28T12:14:15.356Z,1003.8
2017-07-28T12:14:55.859Z,1003.84
2017-07-28T12:15:36.377Z,1003.81
2017-07-28T12:16:16.907Z,1003.73
2017-07-28T12:16:57.467Z,1003.74
2017-07-28T12:17:37.990Z,1003.82
2017-07-28T12:18:19.972Z,1003.75
2017-07-28T12:19:00.233Z,1003.68
2017-07-28T12:19:40.850Z,1003.71
2017-07-28T12:20:21.450Z,1003.74
2017-07-28T12:21:02.019Z,1003.77
2017-07-28T12:21:42.555Z,1003.73
2017-07-28T12:22:23.158Z,1003.88
2017-07-28T12:23:03.571Z,1003.86
2017-07-28T12:23:44.110Z,1003.94
2017-07-28T12:24:24.578Z,1003.93
2017-07-28T12:25:05.139Z,1003.86
2017-07-28T12:25:45.606Z,1003.85
2017-07-28T12:26:26.210Z,1003.87
2017-07-28T12:27:06.750Z,1003.85
2017-07-28T12:27:47.231Z,1003.95
2017-07-28T12:28:27.750Z,1003.89
2017-07-28T12:29:08.272Z,1003.9
2017-07-28T12:29:49.772Z,1003.88
2017-07-28T12:30:30.278Z,1003.82
2017-07-28T12:31:10.691Z,1003.89
2017-07-28T12:31:51.234Z,1003.97
2017-07-28T12:32:31.740Z,1003.92
2017-07-28T12:33:12.203Z,1003.97
2017-07-28T12:33:52.756Z,1004
2017-07-28T12:34:33.280Z,1003.92
2017-07-28T12:35:13.863Z,1004.09
2017-07-28T12:35:54.344Z,1004.15
2017-07-28T12:36:34.959Z,1003.96
2017-07-28T12:37:15.602Z,1003.79
2017-07-28T12:37:56.168Z,1004.12
2017-07-28T12:38:37.642Z,1004.05
2017-07-28T12:39:18.159Z,1004.06
2017-07-28T12:39:58.628Z,1003.92
2017-07-28T12:40:39.279Z,1003.95
2017-07-28T12:41:19.740Z,1004.05
2017-07-28T12:42:00.337Z,1004.07
2017-07-28T12:42:43.608Z,1004.02
2017-07-28T12:43:24.273Z,1004.1
2017-07-28T12:44:04.717Z,1004.15
2017-07-28T12:44:45.256Z,1003.96
2017-07-28T12:45:25.769Z,1004.09
2017-07-28T12:46:06.300Z,1004.13
2017-07-28T12:46:46.788Z,1004.1
2017-07-28T12:47:28.268Z,1004.06
2017-07-28T12:48:07.795Z,1004.04
2017-07-28T12:48:48.428Z,1004.03
2017-07-28T12:49:28.907Z,1004.01
2017-07-28T12:50:09.442Z,1003.97
2017-07-28T12:50:50.596Z,1004.06
2017-07-28T12:51:32.280Z,1004.03
2017-07-28T12:52:11.820Z,1003.93
2017-07-28T12:52:52.281Z,1004.02
2017-07-28T12:53:32.853Z,1003.97
2017-07-28T12:54:13.325Z,1004.01
2017-07-28T12:54:53.843Z,1004
2017-07-28T12:55:34.376Z,1004.03
2017-07-28T12:56:14.802Z,1004.02
2017-07-28T12:56:55.327Z,1003.98
2017-07-28T12:57:35.866Z,1003.9
2017-07-28T12:58:16.370Z,1004.04
2017-07-28T12:58:56.969Z,1003.98
2017-07-28T12:59:37.495Z,1003.93
2017-07-28T13:00:18.013Z,1003.94
2017-07-28T13:00:58.493Z,1003.95
2017-07-28T13:01:39.030Z,1003.72
2017-07-28T13:02:19.668Z,1003.9
2017-07-28T13:03:02.707Z,1003.95
2017-07-28T13:03:43.328Z,1003.93
2017-07-28T13:04:24.622Z,1003.89
2017-07-28T13:05:05.226Z,1003.92
2017-07-28T13:05:46.790Z,1003.94
2017-07-28T13:06:27.254Z,1003.96
2017-07-28T13:07:08.249Z,1003.99
2017-07-28T13:07:48.820Z,1004
2017-07-28T13:08:29.332Z,1003.91
2017-07-28T13:09:11.657Z,1003.98
2017-07-28T13:09:52.383Z,1003.91
2017-07-28T13:10:33.861Z,1003.9
2017-07-28T13:11:17.312Z,1003.84
2017-07-28T13:11:57.843Z,1003.9
2017-07-28T13:12:38.348Z,1003.89
2017-07-28T13:13:18.857Z,1003.91
2017-07-28T13:14:00.105Z,1003.98
2017-07-28T13:14:40.664Z,1003.96
2017-07-28T13:15:21.179Z,1003.87
2017-07-28T13:16:01.647Z,1004.02
2017-07-28T13:16:43.794Z,1003.95
2017-07-28T13:17:23.432Z,1003.97
2017-07-28T13:18:04.022Z,1003.98
2017-07-28T13:18:44.461Z,1003.91
2017-07-28T13:19:25.014Z,1004.04
2017-07-28T13:20:05.488Z,1004.01
2017-07-28T13:20:47.013Z,1003.97
2017-07-28T13:21:27.475Z,1003.97
2017-07-28T13:22:08.026Z,1003.98
2017-07-28T13:22:48.503Z,1003.96
2017-07-28T13:23:28.982Z,1003.96
2017-07-28T13:24:09.521Z,1004.08
2017-07-28T13:24:50.164Z,1004.01
2017-07-28T13:25:30.645Z,1004.04
2017-07-28T13:26:11.220Z,1004.05
2017-07-28T13:26:51.737Z,1004.07
2017-07-28T13:27:32.201Z,1004.09
2017-07-28T13:28:12.747Z,1004.13
2017-07-28T13:28:53.211Z,1004.11
2017-07-28T13:29:33.795Z,1004.05
2017-07-28T13:30:16.708Z,1004.08
2017-07-28T13:30:57.988Z,1004.09
2017-07-28T13:31:38.497Z,1004.04
2017-07-28T13:32:19.033Z,1004.01
2017-07-28T13:32:59.677Z,1004.06
2017-07-28T13:33:40.089Z,1004.05
2017-07-28T13:34:21.294Z,1004.04
2017-07-28T13:35:01.795Z,1003.97
2017-07-28T13:35:42.361Z,1004.04
2017-07-28T13:36:22.889Z,1004.04
2017-07-28T13:37:04.161Z,1004.11
2017-07-28T13:37:44.658Z,1003.99
2017-07-28T13:38:25.167Z,1003.99
2017-07-28T13:39:05.728Z,1003.95
2017-07-28T13:39:48.453Z,1003.85
2017-07-28T13:40:28.915Z,1003.96
2017-07-28T13:41:09.391Z,1003.99
2017-07-28T13:41:53.891Z,1003.99
2017-07-28T13:42:34.481Z,1004
2017-07-28T13:43:14.987Z,1004.04
2017-07-28T13:43:55.597Z,1003.97
2017-07-28T13:44:36.017Z,1004.1
2017-07-28T13:45:17.212Z,1004.05
2017-07-28T13:45:57.764Z,1004.11
2017-07-28T13:46:38.291Z,1004.07
2017-07-28T13:47:18.820Z,1004.05
2017-07-28T13:47:59.438Z,1004.1
2017-07-28T13:48:40.164Z,1004.11
2017-07-28T13:49:21.303Z,1004.11
2017-07-28T13:50:01.206Z,1004.08
2017-07-28T13:50:41.686Z,1004.15
2017-07-28T13:51:25.552Z,1004.15
2017-07-28T13:52:06.095Z,1004.15
2017-07-28T13:52:46.650Z,1004.17
2017-07-28T13:53:27.173Z,1004.16
2017-07-28T13:54:07.612Z,1004.16
2017-07-28T13:54:48.895Z,1004.09
2017-07-28T13:55:29.447Z,1003.95
2017-07-28T13:56:09.915Z,1004.09
2017-07-28T13:56:50.460Z,1004.17
2017-07-28T13:57:31.790Z,1004.14
2017-07-28T13:58:12.428Z,1004.01
2017-07-28T13:58:52.934Z,1004.23
2017-07-28T13:59:33.489Z,1004.18
2017-07-28T14:00:14.007Z,1004.13
2017-07-28T14:00:54.466Z,1004.23
2017-07-28T14:01:35.116Z,1004.17
2017-07-28T14:02:15.572Z,1004.17
2017-07-28T14:02:56.145Z,1004.15
2017-07-28T14:03:36.654Z,1004.2
2017-07-28T14:04:17.232Z,1004.08
2017-07-28T14:04:57.894Z,1004.05
2017-07-28T14:05:38.418Z,1004.09
2017-07-28T14:06:18.931Z,1004.02
2017-07-28T14:07:00.203Z,1004.07
2017-07-28T14:07:40.733Z,1004.16
2017-07-28T14:08:21.349Z,1003.99
2017-07-28T14:09:01.760Z,1004.07
2017-07-28T14:09:42.360Z,1004.2
2017-07-28T14:10:23.018Z,1004.31
2017-07-28T14:11:03.552Z,1004.15
2017-07-28T14:11:44.025Z,1004.04
2017-07-28T14:12:25.325Z,1004.2
2017-07-28T14:13:06.571Z,1004.18
2017-07-28T14:13:47.818Z,1004.23
2017-07-28T14:14:27.601Z,1004.23
2017-07-28T14:15:08.906Z,1004.26
2017-07-28T14:15:49.918Z,1004.2
2017-07-28T14:16:30.896Z,1004.14
2017-07-28T14:17:11.399Z,1004.2
2017-07-28T14:17:51.929Z,1004.24
2017-07-28T14:18:34.973Z,1004.22
2017-07-28T14:19:16.421Z,1004.27
2017-07-28T14:19:56.918Z,1004.23
2017-07-28T14:20:36.498Z,1004.23
2017-07-28T14:21:16.952Z,1004.29
2017-07-28T14:21:57.573Z,1004.28
2017-07-28T14:22:38.041Z,1004.29
2017-07-28T14:23:18.521Z,1004.2
2017-07-28T14:24:00.923Z,1004.3
2017-07-28T14:24:41.489Z,1004.28
2017-07-28T14:25:22.104Z,1004.33
2017-07-28T14:26:02.542Z,1004.31
2017-07-28T14:26:43.092Z,1004.33
2017-07-28T14:27:23.632Z,1004.29
2017-07-28T14:28:04.924Z,1004.35
2017-07-28T14:28:44.768Z,1004.27
2017-07-28T14:29:25.735Z,1004.33
2017-07-28T14:30:06.339Z,1004.34
2017-07-28T14:30:46.758Z,1004.22
2017-07-28T14:31:27.265Z,1004.31
2017-07-28T14:32:07.831Z,1004.29
2017-07-28T14:32:48.629Z,1004.31
2017-07-28T14:33:29.131Z,1004.28
2017-07-28T14:34:09.677Z,1004.34
2017-07-28T14:34:50.194Z,1004.29
2017-07-28T14:35:30.833Z,1004.3
2017-07-28T14:36:11.234Z,1004.29
2017-07-28T14:36:52.771Z,1004.29
2017-07-28T14:37:33.236Z,1004.24
2017-07-28T14:38:13.799Z,1004.29
2017-07-28T14:38:54.219Z,1004.24
2017-07-28T14:39:34.740Z,1004.24
2017-07-28T14:40:15.287Z,1004.22
2017-07-28T14:40:55.920Z,1004.23
2017-07-28T14:41:39.379Z,1004.26
2017-07-28T14:42:19.912Z,1004.21
2017-07-28T14:43:00.418Z,1004.18
2017-07-28T14:43:40.944Z,1004.17
2017-07-28T14:44:21.606Z,1004.23
2017-07-28T14:45:02.126Z,1004.21
2017-07-28T14:45:43.950Z,1004.19
2017-07-28T14:46:26.153Z,1004.2
2017-07-28T14:47:06.770Z,1004.13
2017-07-28T14:47:47.617Z,1004.17
2017-07-28T14:48:28.635Z,1004.17
2017-07-28T14:49:09.178Z,1004.13
2017-07-28T14:49:49.998Z,1004.11
2017-07-28T14:50:30.585Z,1004.15
2017-07-28T14:51:14.013Z,1004.07
2017-07-28T14:51:55.758Z,1004.14
2017-07-28T14:52:36.202Z,1004.16
2017-07-28T14:53:16.703Z,1004.18
2017-07-28T14:53:57.224Z,1004.16
2017-07-28T14:54:37.868Z,1004.14
2017-07-28T14:55:18.474Z,1004.13
2017-07-28T14:55:59.006Z,1004.19
2017-07-28T14:56:39.582Z,1004.17
2017-07-28T14:57:20.161Z,1003.95
2017-07-28T14:58:00.556Z,1004.15
2017-07-28T14:58:41.063Z,1004.15
2017-07-28T14:59:21.534Z,1004.19
2017-07-28T15:00:02.038Z,1004.1
2017-07-28T15:00:42.513Z,1004.1
2017-07-28T15:01:23.096Z,1004.1
2017-07-28T15:02:03.730Z,1004.11
2017-07-28T15:02:46.879Z,1004.08
2017-07-28T15:03:27.510Z,1004.07
2017-07-28T15:04:07.959Z,1004.06
2017-07-28T15:04:48.597Z,1004.09
2017-07-28T15:05:29.083Z,1004.11
2017-07-28T15:06:09.660Z,1004.07
2017-07-28T15:06:50.176Z,1004.07
2017-07-28T15:07:33.354Z,1004.02
2017-07-28T15:08:13.809Z,1004.02
2017-07-28T15:08:54.329Z,1004.02
2017-07-28T15:09:34.892Z,1004.02
2017-07-28T15:10:15.476Z,1004.07
2017-07-28T15:10:56.059Z,1004.03
2017-07-28T15:11:37.361Z,1004.04
2017-07-28T15:12:18.528Z,1004.06
2017-07-28T15:12:59.103Z,1004.04
2017-07-28T15:13:39.604Z,1004.05
2017-07-28T15:14:20.177Z,1004.03
2017-07-28T15:15:00.731Z,1004.02
2017-07-28T15:15:41.235Z,1004.03
2017-07-28T15:16:21.754Z,1004
2017-07-28T15:17:02.193Z,1004.03
2017-07-28T15:17:42.766Z,1003.91
2017-07-28T15:18:23.293Z,1004
2017-07-28T15:19:03.798Z,1004.03
2017-07-28T15:19:44.950Z,1003.98
2017-07-28T15:20:24.879Z,1003.96
2017-07-28T15:21:05.386Z,1003.98
2017-07-28T15:21:45.891Z,1004.04
2017-07-28T15:22:26.384Z,1004.02
2017-07-28T15:23:07.015Z,1003.94
2017-07-28T15:23:47.492Z,1004.02
2017-07-28T15:24:28.017Z,1004.02
2017-07-28T15:25:08.744Z,1004.06
2017-07-28T15:25:49.220Z,1004.05
2017-07-28T15:26:29.762Z,1004.04
2017-07-28T15:27:10.315Z,1004.07
2017-07-28T15:27:50.800Z,1004.03
2017-07-28T15:28:31.345Z,1003.98
2017-07-28T15:29:11.824Z,1004.05
2017-07-28T15:29:52.376Z,1004.02
2017-07-28T15:30:33.176Z,1003.98
2017-07-28T15:31:13.681Z,1004.04
2017-07-28T15:31:55.845Z,1004.07
2017-07-28T15:32:36.408Z,1004.04
2017-07-28T15:33:16.892Z,1004.13
2017-07-28T15:33:57.448Z,1004.1
2017-07-28T15:34:38.894Z,1004.06
2017-07-28T15:35:19.462Z,1004.16
2017-07-28T15:36:01.005Z,1004.18
2017-07-28T15:36:42.418Z,1004.07
2017-07-28T15:37:22.940Z,1004.15
2017-07-28T15:38:04.168Z,1004.13
2017-07-28T15:38:43.936Z,1004.16
2017-07-28T15:39:24.474Z,1004.15
2017-07-28T15:40:05.023Z,1004.16
2017-07-28T15:40:45.563Z,1004.16
2017-07-28T15:41:26.111Z,1004.16
2017-07-28T15:42:06.665Z,1004.12
2017-07-28T15:42:47.191Z,1004.1
2017-07-28T15:43:28.271Z,1004.09
2017-07-28T15:44:08.853Z,1004.08
2017-07-28T15:44:49.309Z,1004.12
2017-07-28T15:45:29.815Z,1004.05
2017-07-28T15:46:11.172Z,1004.04
2017-07-28T15:46:50.821Z,1004.11
2017-07-28T15:47:31.339Z,1004.13
2017-07-28T15:48:12.686Z,1004.14
2017-07-28T15:48:53.196Z,1004.07
2017-07-28T15:49:33.769Z,1004.12
2017-07-28T15:50:14.295Z,1004.15
2017-07-28T15:50:55.587Z,1004.12
2017-07-28T15:51:36.076Z,1004.15
2017-07-28T15:52:16.549Z,1004.08
2017-07-28T15:52:57.002Z,1004.04
2017-07-28T15:53:40.206Z,1004.1
2017-07-28T15:54:19.800Z,1004.09
2017-07-28T15:55:00.295Z,1003.98
2017-07-28T15:55:40.776Z,1004.1
2017-07-28T15:56:22.027Z,1004.11
2017-07-28T15:57:03.087Z,1004.12
2017-07-28T15:57:44.399Z,1004.12
2017-07-28T15:58:24.979Z,1004.13
2017-07-28T15:59:05.421Z,1004.17
2017-07-28T15:59:45.967Z,1004.17
2017-07-28T16:00:26.423Z,1004.11
2017-07-28T16:01:07.692Z,1004.14
2017-07-28T16:01:48.109Z,1004.17
2017-07-28T16:02:31.070Z,1004.06
2017-07-28T16:03:11.606Z,1004.17
2017-07-28T16:03:52.755Z,1004.16
2017-07-28T16:04:33.266Z,1004.19
2017-07-28T16:05:13.805Z,1004.27
2017-07-28T16:05:55.213Z,1004.23
2017-07-28T16:06:36.634Z,1004.28
2017-07-28T16:07:17.106Z,1004.24
2017-07-28T16:07:58.387Z,1004.23
2017-07-28T16:08:38.824Z,1004.22
2017-07-28T16:09:19.324Z,1004.11
2017-07-28T16:09:59.944Z,1004.22
2017-07-28T16:10:40.361Z,1004.22
2017-07-28T16:11:20.925Z,1004.17
2017-07-28T16:12:01.420Z,1004.25
2017-07-28T16:12:42.038Z,1004.18
2017-07-28T16:13:22.571Z,1004.2
2017-07-28T16:14:03.096Z,1004.21
2017-07-28T16:14:43.683Z,1004.17
2017-07-28T16:15:24.201Z,1004.19
2017-07-28T16:16:04.662Z,1004.27
2017-07-28T16:16:46.018Z,1004.24
2017-07-28T16:17:25.748Z,1004.21
2017-07-28T16:19:45.396Z,1004.26
2017-07-28T16:20:25.830Z,1004.23
2017-07-28T16:21:06.217Z,1004.25
2017-07-28T16:21:46.648Z,1004.27
2017-07-28T16:22:27.037Z,1004.24
2017-07-28T16:23:07.586Z,1004.22
2017-07-28T16:23:47.797Z,1004.2
2017-07-28T16:24:28.240Z,1004.24
2017-07-28T16:25:08.654Z,1004.25
2017-07-28T16:28:31.954Z,1004.23
2017-07-28T16:29:12.400Z,1004.2
2017-07-28T16:29:52.923Z,1004.3
2017-07-28T16:30:33.441Z,1004.26
2017-07-28T16:31:14.778Z,1004.26
2017-07-28T16:31:55.334Z,1004.23
2017-07-28T16:32:35.840Z,1004.25
2017-07-28T16:33:16.358Z,1004.27
2017-07-28T16:33:56.835Z,1004.29
2017-07-28T16:34:37.346Z,1004.28
2017-07-28T16:35:18.597Z,1004.27
2017-07-28T16:35:59.160Z,1004.36
2017-07-28T16:36:39.753Z,1004.29
2017-07-28T16:37:20.302Z,1004.3
2017-07-28T16:38:00.837Z,1004.31
2017-07-28T16:38:41.326Z,1004.22